Terminal Aerodrome Forecast
Issued by NWS Cleveland, OH

Home | Current Version | Previous Version | Text Only | Print | Product List | Glossary On
Versions: 1 2 3 4 5 6 7 8 9 10 11 12 13 14 15 16 17 18 19
000
FTUS41 KCLE 200900 AAA
TAFERI
TAF AMD
KERI 200949Z 2010/2106 16022G30KT P6SM OVC050
      TEMPO 2010/2012 5SM -SHRA
     FM201600 20015G25KT P6SM VCTS OVC035CB
      TEMPO 2016/2019 3SM -SHRA OVC025
     FM201900 22018G28KT P6SM OVC022
     FM210200 23015G22KT P6SM OVC035=

USA.gov is the U.S. government's official web portal to all federal, state and local government web resources and services.